Time;durP1;ratioP1;P1;durP2;ratioP2;P2;SDS_P1;SDS_P2;PMS_P1;PMS_P2;Temp;Humidity;BMP_temperature;BMP_pressure;BME280_temperature;BME280_humidity;BME280_pressure;Samples;Min_cycle;Max_cycle;Signal;HPM_P1;HPM_P2
2023/08/16 00:02:48;;;;;;;8.25;7.00;;;23.80;99.90;;;;;;5084438;28;20246;-72
2023/08/16 00:05:41;;;;;;;10.40;7.10;;;23.80;99.90;;;;;;5064031;28;20320;-73
2023/08/16 00:08:30;;;;;;;10.45;6.90;;;23.90;99.90;;;;;;5074199;28;20246;-72
2023/08/16 00:11:19;;;;;;;9.07;6.43;;;23.80;99.90;;;;;;5067653;28;20302;-72
2023/08/16 00:14:08;;;;;;;10.15;6.97;;;23.80;99.90;;;;;;5071195;28;20219;-73
2023/08/16 00:16:57;;;;;;;9.68;6.97;;;23.80;99.90;;;;;;5077728;28;20226;-73
2023/08/16 00:19:46;;;;;;;10.68;6.90;;;23.70;99.90;;;;;;5070223;28;20248;-72
2023/08/16 00:22:37;;;;;;;12.85;7.07;;;23.70;99.90;;;;;;5083377;28;20247;-72
2023/08/16 00:25:26;;;;;;;8.75;6.60;;;23.70;99.90;;;;;;5070014;28;20231;-72
2023/08/16 00:28:14;;;;;;;10.50;7.75;;;23.60;99.90;;;;;;5098051;27;20698;-72
2023/08/16 00:31:04;;;;;;;10.95;6.93;;;23.50;99.90;;;;;;5084799;28;20207;-72
2023/08/16 00:33:53;;;;;;;9.40;6.97;;;23.50;99.90;;;;;;5078442;28;20219;-72
2023/08/16 00:36:44;;;;;;;9.82;6.78;;;23.40;99.90;;;;;;5083587;28;20359;-73
2023/08/16 00:39:35;;;;;;;11.70;6.82;;;23.50;99.90;;;;;;5087085;28;20329;-72
2023/08/16 00:42:24;;;;;;;11.55;6.95;;;23.40;99.90;;;;;;5064204;28;20227;-72
2023/08/16 00:45:13;;;;;;;9.50;6.47;;;23.40;99.90;;;;;;5080573;28;20309;-72
2023/08/16 00:48:02;;;;;;;9.35;7.18;;;23.50;99.90;;;;;;5063729;28;20298;-72
2023/08/16 00:50:51;;;;;;;11.07;6.75;;;23.40;99.90;;;;;;5067488;28;20250;-73
2023/08/16 00:53:42;;;;;;;8.57;6.60;;;23.40;99.90;;;;;;5072507;28;20219;-73
2023/08/16 00:56:36;;;;;;;9.32;6.85;;;23.40;99.90;;;;;;5072477;28;20667;-73
2023/08/16 00:59:27;;;;;;;9.98;6.72;;;23.40;99.90;;;;;;5075807;28;20240;-71
2023/08/16 01:02:16;;;;;;;12.95;7.07;;;23.40;99.90;;;;;;5089699;28;20256;-73
2023/08/16 01:05:06;;;;;;;10.90;6.43;;;23.30;99.90;;;;;;5081247;28;20705;-72
2023/08/16 01:07:55;;;;;;;9.45;7.03;;;23.10;99.90;;;;;;5067890;28;20314;-72
2023/08/16 01:10:51;;;;;;;11.70;7.03;;;23.20;99.90;;;;;;5061397;28;20276;-73
2023/08/16 01:13:50;;;;;;;13.77;6.90;;;23.10;99.90;;;;;;5077187;28;20341;-72
2023/08/16 01:16:40;;;;;;;10.50;6.80;;;23.10;99.90;;;;;;5064020;28;20223;-72
2023/08/16 01:19:32;;;;;;;10.27;6.85;;;23.20;99.90;;;;;;5090798;28;20228;-73
2023/08/16 01:22:29;;;;;;;8.20;7.03;;;23.10;99.90;;;;;;5086024;28;20215;-72
2023/08/16 01:25:31;;;;;;;10.23;6.53;;;23.10;99.90;;;;;;5077382;28;20232;-73
2023/08/16 01:28:22;;;;;;;12.65;7.05;;;23.00;99.90;;;;;;5076919;28;20322;-73
2023/08/16 01:31:11;;;;;;;8.93;6.68;;;22.90;99.90;;;;;;5069629;28;20215;-73
2023/08/16 01:34:01;;;;;;;11.73;6.95;;;22.90;99.90;;;;;;5062596;28;20228;-72
2023/08/16 01:36:50;;;;;;;18.83;7.57;;;22.90;99.90;;;;;;5080742;28;20220;-72
2023/08/16 01:39:39;;;;;;;11.80;6.60;;;22.80;99.90;;;;;;5076134;28;20262;-72
2023/08/16 01:42:30;;;;;;;16.30;6.90;;;22.80;99.90;;;;;;5073218;28;20229;-72
2023/08/16 01:45:21;;;;;;;13.88;7.38;;;22.90;99.90;;;;;;5061641;28;20219;-72
2023/08/16 01:48:13;;;;;;;10.45;6.35;;;22.90;99.90;;;;;;5066524;28;20567;-73
2023/08/16 01:51:02;;;;;;;11.90;7.18;;;22.90;99.90;;;;;;5079942;28;20301;-72
2023/08/16 01:53:53;;;;;;;12.73;7.60;;;22.90;99.90;;;;;;5064675;28;20222;-72
2023/08/16 01:56:42;;;;;;;10.77;7.50;;;22.80;99.90;;;;;;5059938;28;20600;-72
2023/08/16 01:59:31;;;;;;;15.07;6.78;;;22.90;99.90;;;;;;5081380;28;20832;-72
2023/08/16 02:02:24;;;;;;;14.13;7.00;;;22.90;99.90;;;;;;5066706;28;20859;-72
2023/08/16 02:05:13;;;;;;;11.70;7.47;;;22.80;99.90;;;;;;5080230;28;20269;-72
2023/08/16 02:08:01;;;;;;;8.00;6.80;;;22.70;99.90;;;;;;5084544;28;20215;-72
2023/08/16 02:10:51;;;;;;;9.48;6.93;;;22.60;99.90;;;;;;5073943;28;20306;-72
2023/08/16 02:13:39;;;;;;;13.05;7.45;;;22.60;99.90;;;;;;5096073;27;20218;-71
2023/08/16 02:16:28;;;;;;;13.35;7.32;;;22.60;99.90;;;;;;5064001;28;20224;-72
2023/08/16 02:19:19;;;;;;;18.58;7.20;;;22.50;99.90;;;;;;5083164;28;20654;-72
2023/08/16 02:22:08;;;;;;;11.55;7.40;;;22.50;99.90;;;;;;5088072;28;20226;-71
2023/08/16 02:24:57;;;;;;;20.77;7.75;;;22.40;99.90;;;;;;5079702;28;21025;-73
2023/08/16 02:27:46;;;;;;;11.48;7.45;;;22.40;99.90;;;;;;5092075;27;20570;-73
2023/08/16 02:30:36;;;;;;;11.85;7.25;;;22.30;99.90;;;;;;5080357;27;20725;-73
2023/08/16 02:33:24;;;;;;;9.88;7.25;;;22.20;99.90;;;;;;5064156;28;20220;-74
2023/08/16 02:36:15;;;;;;;9.88;7.10;;;22.20;99.90;;;;;;5080962;28;20228;-73
2023/08/16 02:39:05;;;;;;;13.77;7.57;;;22.10;99.90;;;;;;5078810;28;20237;-73
2023/08/16 02:41:55;;;;;;;13.38;7.32;;;22.20;99.90;;;;;;5068535;28;20273;-73
2023/08/16 02:44:44;;;;;;;12.93;7.03;;;22.30;99.90;;;;;;5073831;28;20238;-73
2023/08/16 02:47:33;;;;;;;9.32;7.18;;;22.30;99.90;;;;;;5065593;28;20704;-73
2023/08/16 02:50:22;;;;;;;10.68;6.85;;;22.30;99.90;;;;;;5083855;28;20275;-73
2023/08/16 02:53:12;;;;;;;16.02;7.28;;;22.20;99.90;;;;;;5059486;28;20220;-73
2023/08/16 02:56:01;;;;;;;10.65;7.30;;;22.10;99.90;;;;;;5072016;28;20229;-73
2023/08/16 02:58:50;;;;;;;10.05;7.57;;;22.10;99.90;;;;;;5085361;28;20314;-71
2023/08/16 03:01:39;;;;;;;14.55;7.38;;;22.10;99.90;;;;;;5093394;27;20220;-71
2023/08/16 03:04:27;;;;;;;10.52;7.40;;;21.90;99.90;;;;;;5061941;28;20227;-71
2023/08/16 03:07:16;;;;;;;12.45;7.75;;;21.90;99.90;;;;;;5079465;28;20230;-71
2023/08/16 03:10:09;;;;;;;16.45;7.25;;;21.90;99.90;;;;;;5074375;28;20223;-70
2023/08/16 03:12:57;;;;;;;13.35;7.35;;;21.80;99.90;;;;;;5078257;28;20306;-72
2023/08/16 03:15:46;;;;;;;12.40;7.93;;;21.90;99.90;;;;;;5095450;28;20352;-72
2023/08/16 03:18:35;;;;;;;10.70;8.10;;;21.90;99.90;;;;;;5098231;27;20800;-72
2023/08/16 03:21:24;;;;;;;11.32;7.72;;;22.00;99.90;;;;;;5078819;28;20223;-72
2023/08/16 03:24:13;;;;;;;15.23;7.72;;;22.00;99.90;;;;;;5071931;28;20297;-71
2023/08/16 03:27:04;;;;;;;9.60;7.40;;;21.90;99.90;;;;;;5076376;28;20228;-72
2023/08/16 03:29:56;;;;;;;14.43;8.18;;;21.80;99.90;;;;;;5076758;28;20362;-71
2023/08/16 03:32:45;;;;;;;11.23;8.07;;;21.70;99.90;;;;;;5063836;28;20224;-71
2023/08/16 03:35:35;;;;;;;10.25;8.23;;;21.60;99.90;;;;;;5078401;28;20583;-72
2023/08/16 03:38:23;;;;;;;10.52;7.93;;;21.50;99.90;;;;;;5067311;28;20764;-72
2023/08/16 03:41:14;;;;;;;14.05;7.57;;;21.60;99.90;;;;;;5065228;28;20212;-71
2023/08/16 03:44:06;;;;;;;11.25;7.78;;;21.60;99.90;;;;;;5076297;28;20253;-71
2023/08/16 03:46:56;;;;;;;10.45;8.13;;;21.60;99.90;;;;;;5060965;28;20730;-72
2023/08/16 03:49:45;;;;;;;11.95;8.13;;;21.60;99.90;;;;;;5067955;28;20255;-72
2023/08/16 03:52:34;;;;;;;11.18;8.32;;;21.60;99.90;;;;;;5066583;28;20283;-71
2023/08/16 03:55:23;;;;;;;11.20;8.60;;;21.70;99.90;;;;;;5072996;28;20230;-72
2023/08/16 03:58:12;;;;;;;11.23;8.35;;;21.70;99.90;;;;;;5063456;28;20782;-72
2023/08/16 04:01:02;;;;;;;14.18;9.05;;;21.70;99.90;;;;;;5081109;28;20306;-72
2023/08/16 04:03:51;;;;;;;11.52;8.80;;;21.60;99.90;;;;;;5077266;28;20305;-72
2023/08/16 04:06:40;;;;;;;15.90;8.80;;;21.50;99.90;;;;;;5068586;28;20701;-72
2023/08/16 04:09:29;;;;;;;15.48;8.77;;;21.50;99.90;;;;;;5086306;28;20328;-71
2023/08/16 04:12:18;;;;;;;12.60;9.18;;;21.50;99.90;;;;;;5073154;28;20240;-72
2023/08/16 04:15:08;;;;;;;14.88;9.20;;;21.50;99.90;;;;;;5074111;28;20231;-71
2023/08/16 04:17:59;;;;;;;15.52;8.85;;;21.50;99.90;;;;;;5078692;28;20281;-71
2023/08/16 04:20:49;;;;;;;13.30;9.02;;;21.50;99.90;;;;;;5070020;28;20224;-72
2023/08/16 04:23:37;;;;;;;13.30;8.85;;;21.60;99.90;;;;;;5063636;28;20215;-72
2023/08/16 04:26:27;;;;;;;13.90;8.63;;;21.80;99.90;;;;;;5095497;27;20227;-72
2023/08/16 04:29:16;;;;;;;14.18;9.00;;;21.70;99.90;;;;;;5064104;28;20229;-72
2023/08/16 04:32:06;;;;;;;10.35;8.77;;;21.70;99.90;;;;;;5067574;28;20662;-73
2023/08/16 04:34:57;;;;;;;11.40;9.10;;;21.70;99.90;;;;;;5064937;28;20396;-72
2023/08/16 04:37:46;;;;;;;18.70;9.20;;;21.70;99.90;;;;;;5068701;28;20710;-72
2023/08/16 04:40:35;;;;;;;14.60;9.20;;;21.80;99.90;;;;;;5066065;28;20873;-73
2023/08/16 04:43:24;;;;;;;13.35;9.02;;;21.90;99.90;;;;;;5068691;28;20227;-72
2023/08/16 04:46:14;;;;;;;10.88;8.80;;;22.00;99.90;;;;;;5060113;28;20788;-72
2023/08/16 04:49:03;;;;;;;12.45;8.63;;;22.10;99.90;;;;;;5065264;28;21217;-72
2023/08/16 04:51:53;;;;;;;16.92;9.00;;;22.20;99.90;;;;;;5086200;28;20219;-73
2023/08/16 04:54:43;;;;;;;13.07;8.45;;;22.30;99.90;;;;;;5058062;28;20281;-71
2023/08/16 04:57:32;;;;;;;12.63;8.25;;;22.50;99.90;;;;;;5073190;28;20223;-71
2023/08/16 05:00:21;;;;;;;13.13;8.20;;;22.50;99.90;;;;;;5072542;28;20779;-72
2023/08/16 05:03:16;;;;;;;14.95;8.57;;;22.50;99.90;;;;;;5065447;28;20259;-71
2023/08/16 05:06:06;;;;;;;15.52;8.95;;;22.60;99.90;;;;;;5065040;28;20260;-71
2023/08/16 05:08:57;;;;;;;17.13;8.68;;;22.50;99.90;;;;;;5089279;28;20364;-72
2023/08/16 05:11:45;;;;;;;13.93;9.15;;;22.60;99.90;;;;;;5070130;28;20729;-72
2023/08/16 05:14:34;;;;;;;13.85;8.65;;;22.70;99.90;;;;;;5062456;28;20228;-71
2023/08/16 05:17:23;;;;;;;13.25;8.82;;;22.70;99.90;;;;;;5068721;28;21136;-71
2023/08/16 05:20:13;;;;;;;15.25;8.63;;;22.70;99.90;;;;;;5067503;28;20250;-71
2023/08/16 05:23:02;;;;;;;12.38;8.60;;;22.90;99.90;;;;;;5088286;28;20268;-72
2023/08/16 05:25:52;;;;;;;14.52;9.15;;;22.90;99.90;;;;;;5072164;28;20617;-72
2023/08/16 05:28:41;;;;;;;16.08;9.52;;;23.00;99.90;;;;;;5088911;28;20312;-72
2023/08/16 05:31:30;;;;;;;14.13;8.65;;;23.10;99.90;;;;;;5065817;28;20712;-71
2023/08/16 05:34:20;;;;;;;14.00;8.57;;;23.30;99.90;;;;;;5085710;28;20242;-71
2023/08/16 05:37:09;;;;;;;12.63;8.25;;;23.20;99.90;;;;;;5080152;28;20270;-72
2023/08/16 05:39:58;;;;;;;13.68;8.10;;;23.40;99.90;;;;;;5070181;28;20246;-72
2023/08/16 05:42:48;;;;;;;13.90;8.20;;;23.30;99.90;;;;;;5064663;28;20219;-72
2023/08/16 05:45:37;;;;;;;12.38;8.45;;;23.50;99.90;;;;;;5085597;28;20227;-72
2023/08/16 05:48:26;;;;;;;11.63;7.93;;;23.70;99.90;;;;;;5075696;28;20220;-72
2023/08/16 05:51:15;;;;;;;19.27;8.88;;;24.30;99.90;;;;;;5066019;28;20396;-73
2023/08/16 05:54:04;;;;;;;16.85;10.13;;;24.30;99.90;;;;;;5073450;27;20233;-71
2023/08/16 05:56:53;;;;;;;18.17;11.13;;;24.20;99.90;;;;;;5096336;28;20237;-72
2023/08/16 05:59:44;;;;;;;18.23;11.27;;;24.00;99.90;;;;;;5073062;28;20351;-72
2023/08/16 06:02:33;;;;;;;15.00;10.95;;;24.00;99.90;;;;;;5081386;28;20238;-72
2023/08/16 06:05:22;;;;;;;12.98;10.45;;;24.10;99.90;;;;;;5076950;28;20309;-71
2023/08/16 06:08:11;;;;;;;21.48;11.38;;;24.40;99.90;;;;;;5085994;28;20706;-72
2023/08/16 06:11:01;;;;;;;16.10;11.45;;;24.60;99.90;;;;;;5080890;28;20702;-72
2023/08/16 06:13:50;;;;;;;18.70;11.63;;;24.70;99.90;;;;;;5070313;28;20301;-72
2023/08/16 06:16:40;;;;;;;15.13;10.50;;;24.80;99.90;;;;;;5102644;28;20229;-70
2023/08/16 06:19:29;;;;;;;18.80;9.75;;;24.70;99.90;;;;;;5076266;28;20631;-72
2023/08/16 06:22:18;;;;;;;22.10;9.10;;;24.70;99.90;;;;;;5077048;28;20232;-72
2023/08/16 06:25:08;;;;;;;16.20;8.95;;;24.90;99.90;;;;;;5089422;28;20719;-72
2023/08/16 06:27:58;;;;;;;17.02;8.18;;;24.90;99.90;;;;;;5080581;28;20223;-72
2023/08/16 06:30:47;;;;;;;13.60;8.10;;;25.00;99.90;;;;;;5088504;28;20270;-71
2023/08/16 06:33:37;;;;;;;19.30;8.35;;;25.20;99.90;;;;;;5086026;28;20706;-72
2023/08/16 06:36:26;;;;;;;18.73;9.60;;;25.40;99.90;;;;;;5073984;28;20228;-72
2023/08/16 06:39:15;;;;;;;16.77;8.82;;;25.50;99.90;;;;;;5093867;28;20326;-72
2023/08/16 06:42:04;;;;;;;14.40;8.27;;;25.60;99.90;;;;;;5089936;28;20234;-71
2023/08/16 06:44:55;;;;;;;16.50;8.95;;;25.70;99.90;;;;;;5071438;28;20231;-72
2023/08/16 06:47:44;;;;;;;19.50;8.40;;;26.80;99.90;;;;;;5080852;28;20257;-71
2023/08/16 06:50:34;;;;;;;16.75;8.00;;;27.40;99.90;;;;;;5080052;28;20843;-72
2023/08/16 06:53:25;;;;;;;16.88;8.73;;;27.20;99.90;;;;;;5086141;28;20220;-71
2023/08/16 06:56:14;;;;;;;14.27;8.20;;;26.90;99.90;;;;;;5083479;28;20219;-73
2023/08/16 06:59:03;;;;;;;17.20;8.48;;;26.70;99.90;;;;;;5080409;28;20775;-72
2023/08/16 07:01:52;;;;;;;13.40;8.60;;;26.70;99.90;;;;;;5080428;28;20763;-71
2023/08/16 07:04:43;;;;;;;13.10;7.68;;;26.60;99.90;;;;;;5088834;28;20215;-72
2023/08/16 07:07:34;;;;;;;18.55;8.32;;;26.80;99.90;;;;;;5080347;28;20221;-72
2023/08/16 07:10:23;;;;;;;15.10;8.35;;;26.90;99.90;;;;;;5070834;28;20789;-73
2023/08/16 07:13:12;;;;;;;16.60;8.63;;;26.90;99.90;;;;;;5074803;28;20219;-72
2023/08/16 07:16:01;;;;;;;19.63;8.05;;;26.90;99.90;;;;;;5068320;28;20284;-71
2023/08/16 07:18:50;;;;;;;13.77;8.27;;;27.20;99.90;;;;;;5076711;28;20254;-73
2023/08/16 07:21:41;;;;;;;11.23;7.53;;;27.20;99.90;;;;;;5079298;28;20372;-71
2023/08/16 07:24:31;;;;;;;17.52;7.80;;;27.40;99.90;;;;;;5080810;28;20261;-71
2023/08/16 07:27:20;;;;;;;16.48;8.07;;;27.50;99.90;;;;;;5067785;28;20548;-71
2023/08/16 07:30:10;;;;;;;14.23;7.85;;;27.80;99.90;;;;;;5084868;28;20435;-71
2023/08/16 07:32:58;;;;;;;12.50;8.07;;;28.00;99.90;;;;;;5080610;28;20306;-73
2023/08/16 07:35:47;;;;;;;14.82;9.10;;;28.00;99.90;;;;;;5070441;28;20207;-71
2023/08/16 07:38:36;;;;;;;11.50;7.60;;;28.10;99.90;;;;;;5088178;28;20388;-72
2023/08/16 07:41:27;;;;;;;18.20;8.48;;;28.20;99.90;;;;;;5088302;28;20451;-71
2023/08/16 07:44:15;;;;;;;15.95;8.05;;;28.40;99.90;;;;;;5080215;28;20306;-71
2023/08/16 07:47:05;;;;;;;13.90;7.93;;;28.50;99.90;;;;;;5074056;28;20219;-71
2023/08/16 07:49:56;;;;;;;12.98;7.50;;;28.70;99.90;;;;;;5074127;28;20314;-72
2023/08/16 07:52:45;;;;;;;13.05;8.77;;;29.00;99.90;;;;;;5078351;28;20215;-72
2023/08/16 07:55:34;;;;;;;11.70;7.75;;;29.10;99.90;;;;;;5100705;27;20223;-71
2023/08/16 07:58:24;;;;;;;13.10;7.70;;;29.30;99.90;;;;;;5089272;28;20219;-71
2023/08/16 08:01:13;;;;;;;13.88;7.90;;;29.60;99.90;;;;;;5091684;28;20567;-71
2023/08/16 08:04:02;;;;;;;15.45;8.20;;;29.70;99.70;;;;;;5074590;28;20717;-71
2023/08/16 08:06:51;;;;;;;14.75;8.50;;;29.90;99.90;;;;;;5072875;28;20231;-71
2023/08/16 08:09:41;;;;;;;19.65;7.78;;;30.20;99.60;;;;;;5086677;28;20229;-71
2023/08/16 08:12:30;;;;;;;12.98;8.25;;;30.50;99.90;;;;;;5064925;28;20223;-73
2023/08/16 08:15:21;;;;;;;12.88;7.75;;;30.80;98.00;;;;;;5085974;28;20723;-72
2023/08/16 08:18:10;;;;;;;19.75;8.32;;;31.10;98.30;;;;;;5089462;28;20231;-72
2023/08/16 08:20:59;;;;;;;13.75;7.82;;;31.20;96.80;;;;;;5085752;28;20211;-71
2023/08/16 08:23:48;;;;;;;11.77;7.95;;;31.60;96.70;;;;;;5077414;28;20223;-71
2023/08/16 08:26:37;;;;;;;13.60;7.95;;;31.80;96.00;;;;;;5080320;28;20222;-71
2023/08/16 08:29:26;;;;;;;10.15;7.65;;;32.10;99.90;;;;;;5077491;28;20325;-71
2023/08/16 08:32:19;;;;;;;11.88;7.85;;;32.50;95.50;;;;;;5067792;28;20250;-72
2023/08/16 08:35:08;;;;;;;14.75;8.15;;;32.80;96.50;;;;;;5065522;28;20211;-71
2023/08/16 08:37:57;;;;;;;13.68;8.02;;;31.90;94.70;;;;;;5077718;28;20230;-71
2023/08/16 08:40:46;;;;;;;12.57;8.48;;;31.50;94.90;;;;;;5075440;28;20272;-71
2023/08/16 08:43:37;;;;;;;16.95;7.82;;;31.10;95.10;;;;;;5080167;28;20230;-71
2023/08/16 08:46:47;;;;;;;15.23;7.68;;;31.10;95.10;;;;;;5069202;28;20215;-72
2023/08/16 08:49:41;;;;;;;10.07;7.70;;;31.90;94.30;;;;;;5082742;28;20896;-72
2023/08/16 08:52:31;;;;;;;15.38;8.00;;;32.60;94.10;;;;;;5081190;28;20301;-71
2023/08/16 08:55:21;;;;;;;9.75;7.90;;;33.20;93.50;;;;;;5091624;28;20295;-71
2023/08/16 08:58:10;;;;;;;11.02;7.90;;;33.80;96.30;;;;;;5076349;28;20448;-71
2023/08/16 09:01:00;;;;;;;14.20;8.20;;;34.10;94.80;;;;;;5079602;28;20379;-72
2023/08/16 09:03:50;;;;;;;10.70;7.70;;;34.50;93.30;;;;;;5085676;28;20265;-73
2023/08/16 09:06:42;;;;;;;13.00;7.40;;;34.80;95.80;;;;;;5061411;28;20219;-71
2023/08/16 09:09:31;;;;;;;10.07;7.63;;;34.90;91.20;;;;;;5068333;28;20388;-72
2023/08/16 09:12:21;;;;;;;10.50;7.20;;;34.80;91.20;;;;;;5076174;28;20584;-72
2023/08/16 09:15:11;;;;;;;8.98;7.32;;;35.20;91.40;;;;;;5082056;28;20644;-72
2023/08/16 09:18:07;;;;;;;9.32;7.65;;;35.20;93.00;;;;;;5079502;28;20249;-71
2023/08/16 09:20:59;;;;;;;12.75;7.82;;;35.60;95.00;;;;;;5074064;28;20232;-71
2023/08/16 09:23:58;;;;;;;10.43;7.22;;;35.40;88.40;;;;;;5090863;28;20317;-71
2023/08/16 09:26:47;;;;;;;9.85;6.82;;;35.90;90.50;;;;;;5103322;28;20720;-71
2023/08/16 09:29:40;;;;;;;12.95;7.10;;;36.40;90.20;;;;;;5094073;28;20238;-72
2023/08/16 09:32:33;;;;;;;11.27;7.05;;;36.50;85.00;;;;;;5077943;28;20223;-71
2023/08/16 09:35:28;;;;;;;11.55;6.97;;;37.30;83.10;;;;;;5066236;28;20236;-72
2023/08/16 09:38:21;;;;;;;14.73;6.75;;;37.50;89.10;;;;;;5087144;28;20222;-71
2023/08/16 09:41:27;;;;;;;9.77;6.57;;;37.90;85.10;;;;;;5082751;28;20226;-71
2023/08/16 09:44:17;;;;;;;13.93;6.45;;;38.10;79.00;;;;;;5065943;28;20223;-71
2023/08/16 09:47:13;;;;;;;10.80;6.55;;;38.30;76.20;;;;;;5077830;28;20733;-71
2023/08/16 09:50:09;;;;;;;11.40;6.30;;;38.60;77.70;;;;;;5081464;28;20268;-72
2023/08/16 09:53:01;;;;;;;10.90;6.30;;;39.00;79.80;;;;;;5068492;28;20238;-72
2023/08/16 09:56:05;;;;;;;11.82;6.32;;;39.40;79.50;;;;;;5083094;28;20273;-72
2023/08/16 09:58:59;;;;;;;13.27;6.40;;;40.00;70.50;;;;;;5076544;28;20216;-72
2023/08/16 10:01:49;;;;;;;12.05;7.20;;;40.60;74.00;;;;;;5078411;28;20231;-73
2023/08/16 10:04:59;;;;;;;11.48;7.35;;;41.20;74.10;;;;;;5084899;28;20225;-72
2023/08/16 10:07:48;;;;;;;12.40;6.70;;;41.50;72.30;;;;;;5089356;28;20243;-72
2023/08/16 10:10:39;;;;;;;13.95;6.45;;;41.70;65.80;;;;;;5068023;28;20238;-71
2023/08/16 10:13:28;;;;;;;10.10;6.85;;;41.70;67.30;;;;;;5078213;28;20253;-71
2023/08/16 10:16:22;;;;;;;13.15;6.50;;;41.80;64.40;;;;;;5067188;28;20793;-72
2023/08/16 10:19:15;;;;;;;13.43;6.07;;;42.10;66.90;;;;;;5065037;28;20766;-72
2023/08/16 10:22:10;;;;;;;12.18;6.88;;;42.50;69.80;;;;;;5069805;28;20235;-72
2023/08/16 10:25:25;;;;;;;12.10;6.53;;;42.90;66.30;;;;;;5082928;28;20605;-72
2023/08/16 10:28:16;;;;;;;11.00;6.10;;;42.80;63.30;;;;;;5071643;28;20252;-71
2023/08/16 10:31:09;;;;;;;12.93;6.45;;;42.70;63.90;;;;;;5067891;28;20261;-72
2023/08/16 10:34:04;;;;;;;12.13;6.53;;;43.50;66.40;;;;;;5081047;28;20699;-71
2023/08/16 10:36:54;;;;;;;12.50;6.38;;;43.30;60.50;;;;;;5080338;28;21112;-72
2023/08/16 10:39:50;;;;;;;11.90;6.93;;;42.90;59.50;;;;;;5090227;28;21033;-71
2023/08/16 10:42:50;;;;;;;16.98;7.97;;;42.10;62.50;;;;;;5098193;27;20219;-71
2023/08/16 10:45:45;;;;;;;8.35;6.10;;;41.40;66.60;;;;;;5069858;28;20598;-71
2023/08/16 10:48:37;;;;;;;13.25;6.38;;;40.10;65.60;;;;;;5095809;27;20228;-71
2023/08/16 10:51:28;;;;;;;10.32;6.40;;;38.80;69.50;;;;;;5088020;28;20215;-71
2023/08/16 10:54:17;;;;;;;9.18;5.90;;;37.70;68.20;;;;;;5084178;28;20250;-72
2023/08/16 10:57:07;;;;;;;10.25;5.88;;;37.10;70.80;;;;;;5082752;28;20700;-72
2023/08/16 11:00:05;;;;;;;11.27;6.30;;;36.90;70.80;;;;;;5063931;28;20239;-71
2023/08/16 11:02:55;;;;;;;12.23;6.75;;;36.50;71.60;;;;;;5084290;28;20666;-71
2023/08/16 11:05:45;;;;;;;10.00;6.30;;;36.10;73.10;;;;;;5085841;28;20746;-71
2023/08/16 11:08:36;;;;;;;14.35;6.72;;;36.00;73.40;;;;;;5084634;28;20250;-71
2023/08/16 11:11:25;;;;;;;12.20;6.43;;;35.80;72.40;;;;;;5088101;28;20235;-71
2023/08/16 11:14:14;;;;;;;10.73;7.05;;;35.40;72.60;;;;;;5072052;28;20230;-71
2023/08/16 11:17:03;;;;;;;12.52;7.38;;;35.30;77.10;;;;;;5081009;28;20268;-70
2023/08/16 11:19:53;;;;;;;9.35;7.28;;;36.10;77.10;;;;;;5070702;28;20641;-70
2023/08/16 11:22:43;;;;;;;12.00;6.78;;;36.40;79.00;;;;;;5073082;28;20229;-70
2023/08/16 11:25:35;;;;;;;11.73;6.47;;;36.00;76.00;;;;;;5074834;28;20219;-72
2023/08/16 11:28:23;;;;;;;10.18;6.38;;;35.60;73.80;;;;;;5081575;28;20222;-71
2023/08/16 11:31:12;;;;;;;7.63;6.20;;;34.70;75.70;;;;;;5080292;28;20231;-71
2023/08/16 11:34:02;;;;;;;7.82;6.45;;;34.70;78.20;;;;;;5077849;28;20218;-71
2023/08/16 11:36:51;;;;;;;10.15;6.85;;;34.50;76.70;;;;;;5068975;28;20215;-71
2023/08/16 11:39:40;;;;;;;10.05;6.55;;;34.40;80.30;;;;;;5075364;28;20246;-71
2023/08/16 11:42:31;;;;;;;10.30;6.38;;;34.40;78.00;;;;;;5074556;27;20222;-71
2023/08/16 11:45:21;;;;;;;7.78;6.35;;;33.80;78.80;;;;;;5063158;28;20228;-70
2023/08/16 11:48:09;;;;;;;11.55;6.95;;;33.60;82.70;;;;;;5084470;28;20223;-71
2023/08/16 11:50:59;;;;;;;14.63;7.05;;;33.70;80.20;;;;;;5084642;28;20223;-72
2023/08/16 11:53:48;;;;;;;12.35;6.72;;;33.40;82.00;;;;;;5066492;28;20299;-72
2023/08/16 11:56:40;;;;;;;12.27;7.32;;;33.30;84.00;;;;;;5083268;28;20245;-70
2023/08/16 11:59:32;;;;;;;10.77;6.97;;;33.50;84.00;;;;;;5072459;28;20215;-71
2023/08/16 12:02:22;;;;;;;11.23;7.03;;;33.50;82.00;;;;;;5092365;28;20877;-71
2023/08/16 12:05:14;;;;;;;8.30;6.80;;;33.70;81.50;;;;;;5075853;28;20318;-71
2023/08/16 12:08:05;;;;;;;8.15;6.38;;;34.70;82.30;;;;;;5083654;28;20333;-71
2023/08/16 12:10:55;;;;;;;12.98;6.47;;;35.80;79.00;;;;;;5074950;28;20866;-70
2023/08/16 12:13:44;;;;;;;12.15;6.13;;;37.40;73.20;;;;;;5082103;28;20231;-72
2023/08/16 12:16:34;;;;;;;7.53;6.28;;;39.40;70.20;;;;;;5072041;28;20219;-71
2023/08/16 12:19:23;;;;;;;13.70;5.85;;;41.60;68.50;;;;;;5079040;28;20517;-71
2023/08/16 12:22:12;;;;;;;10.68;7.20;;;41.50;66.00;;;;;;5072850;28;20226;-72
2023/08/16 12:25:01;;;;;;;10.00;7.18;;;41.10;67.20;;;;;;5079934;28;20335;-72
2023/08/16 12:27:50;;;;;;;7.80;5.60;;;40.30;67.10;;;;;;5070533;28;20689;-72
2023/08/16 12:30:39;;;;;;;8.65;6.28;;;38.00;67.90;;;;;;5076848;28;20231;-72
2023/08/16 12:33:29;;;;;;;8.13;5.78;;;37.10;71.80;;;;;;5076281;28;20364;-72
2023/08/16 12:36:18;;;;;;;10.52;7.38;;;36.50;74.40;;;;;;5063507;28;20388;-72
2023/08/16 12:39:07;;;;;;;8.88;5.55;;;35.90;75.90;;;;;;5078798;28;20217;-72
2023/08/16 12:41:56;;;;;;;7.55;4.93;;;35.70;71.70;;;;;;5074699;28;20705;-71
2023/08/16 12:44:45;;;;;;;6.75;5.38;;;35.60;71.60;;;;;;5082662;28;20223;-72
2023/08/16 12:47:34;;;;;;;7.25;5.80;;;35.30;73.80;;;;;;5079076;28;20222;-74
2023/08/16 12:50:24;;;;;;;8.50;5.60;;;35.00;75.90;;;;;;5079509;28;21072;-72
2023/08/16 12:53:13;;;;;;;11.15;6.70;;;34.70;75.10;;;;;;5075677;28;20665;-73
2023/08/16 12:56:16;;;;;;;9.98;5.80;;;34.40;80.40;;;;;;5075869;28;20225;-71
2023/08/16 12:59:05;;;;;;;9.80;5.53;;;34.20;76.60;;;;;;5093780;27;20756;-72
2023/08/16 13:02:05;;;;;;;9.38;5.57;;;34.20;77.40;;;;;;5085292;28;20497;-72
2023/08/16 13:05:01;;;;;;;7.95;5.82;;;34.00;76.90;;;;;;5080955;28;20263;-73
2023/08/16 13:08:01;;;;;;;7.80;6.72;;;34.00;77.00;;;;;;5080621;28;20219;-72
2023/08/16 13:10:52;;;;;;;9.20;5.85;;;34.00;79.00;;;;;;5065459;28;20725;-73
2023/08/16 13:13:44;;;;;;;11.88;7.20;;;33.90;77.70;;;;;;5064414;28;20261;-71
2023/08/16 13:16:34;;;;;;;13.50;7.07;;;33.90;79.60;;;;;;5076510;28;20234;-72
2023/08/16 13:19:35;;;;;;;9.55;6.57;;;33.50;81.50;;;;;;5061712;28;20232;-71
2023/08/16 13:22:26;;;;;;;7.82;6.50;;;33.70;79.80;;;;;;5067933;28;20720;-73
2023/08/16 13:25:20;;;;;;;7.63;6.47;;;33.60;78.30;;;;;;5073720;28;20227;-71
2023/08/16 13:28:12;;;;;;;8.27;5.68;;;33.50;78.30;;;;;;5082317;28;20628;-72
2023/08/16 13:31:07;;;;;;;10.38;6.22;;;33.60;78.20;;;;;;5081983;28;20306;-71
2023/08/16 13:34:09;;;;;;;11.63;7.20;;;33.60;78.20;;;;;;5078833;28;20596;-72
2023/08/16 13:37:19;;;;;;;10.02;5.90;;;33.50;82.00;;;;;;5081040;28;20741;-72
2023/08/16 13:40:11;;;;;;;11.15;7.00;;;33.30;79.10;;;;;;5070108;28;20218;-71
2023/08/16 13:43:04;;;;;;;8.07;7.00;;;33.10;85.40;;;;;;5071075;28;20259;-71
2023/08/16 13:45:56;;;;;;;8.85;7.30;;;32.90;84.70;;;;;;5085243;28;20385;-73
2023/08/16 13:48:45;;;;;;;9.70;5.78;;;32.60;84.00;;;;;;5082963;28;20254;-71
2023/08/16 13:51:34;;;;;;;8.80;6.10;;;32.70;81.10;;;;;;5065242;28;20572;-72
2023/08/16 13:54:23;;;;;;;9.27;6.88;;;32.80;79.20;;;;;;5089002;28;20323;-71
2023/08/16 13:57:12;;;;;;;7.70;5.28;;;32.80;82.80;;;;;;5074306;28;20594;-72
2023/08/16 14:00:02;;;;;;;7.45;5.45;;;32.80;78.50;;;;;;5085201;28;20348;-72
2023/08/16 14:02:59;;;;;;;7.82;5.60;;;32.80;77.00;;;;;;5072754;28;20590;-71
2023/08/16 14:05:48;;;;;;;9.23;7.43;;;32.70;79.20;;;;;;5100843;27;20296;-71
2023/08/16 14:08:37;;;;;;;7.60;5.85;;;32.70;77.40;;;;;;5067140;28;20241;-73
2023/08/16 14:11:26;;;;;;;7.78;5.72;;;32.80;73.90;;;;;;5080566;28;20222;-73
2023/08/16 14:14:15;;;;;;;9.82;5.90;;;32.70;74.90;;;;;;5062609;28;20277;-72
2023/08/16 14:17:05;;;;;;;9.80;5.95;;;32.40;78.80;;;;;;5096032;27;20207;-72
2023/08/16 14:19:55;;;;;;;14.00;5.90;;;32.40;80.10;;;;;;5076251;28;20261;-71
2023/08/16 14:22:44;;;;;;;8.05;6.10;;;32.30;82.90;;;;;;5081406;28;20337;-71
2023/08/16 14:25:33;;;;;;;7.75;5.80;;;32.30;85.60;;;;;;5080424;28;20283;-71
2023/08/16 14:28:22;;;;;;;11.82;6.22;;;32.30;81.70;;;;;;5082928;28;20223;-71
2023/08/16 14:31:12;;;;;;;8.98;5.88;;;32.30;81.60;;;;;;5096407;28;20219;-71
2023/08/16 14:34:02;;;;;;;6.05;5.40;;;32.30;79.60;;;;;;5071320;28;20221;-71
2023/08/16 14:36:51;;;;;;;8.15;5.60;;;32.30;79.50;;;;;;5077628;28;20275;-72
2023/08/16 14:39:42;;;;;;;12.43;5.90;;;32.30;80.30;;;;;;5083852;28;20353;-71